sensor_id;sensor_type;location;lat;lon;timestamp;P1;durP1;ratioP1;P2;durP2;ratioP2
57856;SDS011;43683;48.650;9.290;2023-07-31T00:01:39;3.83;;;2.20;;
57856;SDS011;43683;48.650;9.290;2023-07-31T00:04:04;5.07;;;2.47;;
57856;SDS011;43683;48.650;9.290;2023-07-31T00:06:30;3.92;;;2.50;;
57856;SDS011;43683;48.650;9.290;2023-07-31T00:08:55;3.65;;;2.20;;
57856;SDS011;43683;48.650;9.290;2023-07-31T00:11:21;4.15;;;2.20;;
57856;SDS011;43683;48.650;9.290;2023-07-31T00:13:47;4.63;;;2.50;;
57856;SDS011;43683;48.650;9.290;2023-07-31T00:16:12;4.75;;;2.60;;
57856;SDS011;43683;48.650;9.290;2023-07-31T00:18:38;4.50;;;2.15;;
57856;SDS011;43683;48.650;9.290;2023-07-31T00:21:04;4.63;;;2.20;;
57856;SDS011;43683;48.650;9.290;2023-07-31T00:23:29;2.78;;;1.90;;
57856;SDS011;43683;48.650;9.290;2023-07-31T00:25:55;3.45;;;2.20;;
57856;SDS011;43683;48.650;9.290;2023-07-31T00:28:20;3.65;;;2.20;;
57856;SDS011;43683;48.650;9.290;2023-07-31T00:30:46;4.47;;;2.10;;
57856;SDS011;43683;48.650;9.290;2023-07-31T00:33:11;4.05;;;1.90;;
57856;SDS011;43683;48.650;9.290;2023-07-31T00:35:37;2.78;;;1.80;;
57856;SDS011;43683;48.650;9.290;2023-07-31T00:38:02;2.85;;;2.00;;
57856;SDS011;43683;48.650;9.290;2023-07-31T00:40:28;5.45;;;2.50;;
57856;SDS011;43683;48.650;9.290;2023-07-31T00:42:53;4.18;;;2.47;;
57856;SDS011;43683;48.650;9.290;2023-07-31T00:45:19;4.55;;;2.25;;
57856;SDS011;43683;48.650;9.290;2023-07-31T00:47:45;5.03;;;2.30;;
57856;SDS011;43683;48.650;9.290;2023-07-31T00:50:11;4.22;;;2.17;;
57856;SDS011;43683;48.650;9.290;2023-07-31T00:52:37;4.03;;;2.30;;
57856;SDS011;43683;48.650;9.290;2023-07-31T00:55:03;3.03;;;2.15;;
57856;SDS011;43683;48.650;9.290;2023-07-31T00:57:29;4.18;;;2.58;;
57856;SDS011;43683;48.650;9.290;2023-07-31T00:59:56;4.25;;;2.75;;
57856;SDS011;43683;48.650;9.290;2023-07-31T01:02:22;7.47;;;3.38;;
57856;SDS011;43683;48.650;9.290;2023-07-31T01:04:48;5.43;;;2.50;;
57856;SDS011;43683;48.650;9.290;2023-07-31T01:07:15;2.42;;;2.00;;
57856;SDS011;43683;48.650;9.290;2023-07-31T01:09:51;3.25;;;2.00;;
57856;SDS011;43683;48.650;9.290;2023-07-31T01:12:21;3.25;;;2.33;;
57856;SDS011;43683;48.650;9.290;2023-07-31T01:15:08;4.82;;;2.30;;
57856;SDS011;43683;48.650;9.290;2023-07-31T01:17:36;4.75;;;3.03;;
57856;SDS011;43683;48.650;9.290;2023-07-31T01:20:03;4.20;;;2.73;;
57856;SDS011;43683;48.650;9.290;2023-07-31T01:25:35;3.63;;;1.83;;
57856;SDS011;43683;48.650;9.290;2023-07-31T01:28:23;4.55;;;2.30;;
57856;SDS011;43683;48.650;9.290;2023-07-31T01:30:52;4.75;;;2.08;;
57856;SDS011;43683;48.650;9.290;2023-07-31T01:33:23;7.03;;;2.60;;
57856;SDS011;43683;48.650;9.290;2023-07-31T01:35:49;4.85;;;2.63;;
57856;SDS011;43683;48.650;9.290;2023-07-31T01:38:15;3.58;;;2.20;;
57856;SDS011;43683;48.650;9.290;2023-07-31T01:40:45;4.47;;;2.78;;
57856;SDS011;43683;48.650;9.290;2023-07-31T01:43:15;6.20;;;2.30;;
57856;SDS011;43683;48.650;9.290;2023-07-31T01:45:41;6.07;;;1.98;;
57856;SDS011;43683;48.650;9.290;2023-07-31T01:48:06;4.55;;;2.25;;
57856;SDS011;43683;48.650;9.290;2023-07-31T01:50:32;3.90;;;2.10;;
57856;SDS011;43683;48.650;9.290;2023-07-31T01:52:57;3.03;;;1.83;;
57856;SDS011;43683;48.650;9.290;2023-07-31T01:55:23;3.63;;;2.25;;
57856;SDS011;43683;48.650;9.290;2023-07-31T01:57:48;3.83;;;1.90;;
57856;SDS011;43683;48.650;9.290;2023-07-31T02:00:14;4.97;;;2.00;;
57856;SDS011;43683;48.650;9.290;2023-07-31T02:02:39;3.25;;;2.22;;
57856;SDS011;43683;48.650;9.290;2023-07-31T02:05:05;4.32;;;1.98;;
57856;SDS011;43683;48.650;9.290;2023-07-31T02:07:31;3.17;;;2.10;;
57856;SDS011;43683;48.650;9.290;2023-07-31T02:09:56;3.10;;;2.30;;
57856;SDS011;43683;48.650;9.290;2023-07-31T02:12:22;4.57;;;2.47;;
57856;SDS011;43683;48.650;9.290;2023-07-31T02:14:47;4.07;;;2.20;;
57856;SDS011;43683;48.650;9.290;2023-07-31T02:17:13;4.53;;;2.30;;
57856;SDS011;43683;48.650;9.290;2023-07-31T02:19:38;4.53;;;2.53;;
57856;SDS011;43683;48.650;9.290;2023-07-31T02:22:04;4.88;;;2.47;;
57856;SDS011;43683;48.650;9.290;2023-07-31T02:24:30;5.13;;;2.50;;
57856;SDS011;43683;48.650;9.290;2023-07-31T02:26:56;6.68;;;3.00;;
57856;SDS011;43683;48.650;9.290;2023-07-31T02:29:22;4.05;;;2.40;;
57856;SDS011;43683;48.650;9.290;2023-07-31T02:31:47;5.25;;;2.50;;
57856;SDS011;43683;48.650;9.290;2023-07-31T02:34:13;4.82;;;2.33;;
57856;SDS011;43683;48.650;9.290;2023-07-31T02:36:39;3.97;;;2.47;;
57856;SDS011;43683;48.650;9.290;2023-07-31T02:39:04;4.40;;;2.50;;
57856;SDS011;43683;48.650;9.290;2023-07-31T02:41:30;5.25;;;2.53;;
57856;SDS011;43683;48.650;9.290;2023-07-31T02:43:55;3.33;;;2.22;;
57856;SDS011;43683;48.650;9.290;2023-07-31T02:46:21;5.32;;;2.70;;
57856;SDS011;43683;48.650;9.290;2023-07-31T02:48:49;5.78;;;2.63;;
57856;SDS011;43683;48.650;9.290;2023-07-31T02:51:14;5.70;;;2.80;;
57856;SDS011;43683;48.650;9.290;2023-07-31T02:53:40;3.63;;;2.45;;
57856;SDS011;43683;48.650;9.290;2023-07-31T02:56:05;2.88;;;2.08;;
57856;SDS011;43683;48.650;9.290;2023-07-31T02:58:31;3.50;;;2.05;;
57856;SDS011;43683;48.650;9.290;2023-07-31T03:00:58;6.20;;;2.30;;
57856;SDS011;43683;48.650;9.290;2023-07-31T03:03:23;3.53;;;2.55;;
57856;SDS011;43683;48.650;9.290;2023-07-31T03:05:49;3.08;;;2.17;;
57856;SDS011;43683;48.650;9.290;2023-07-31T03:08:15;3.25;;;2.00;;
57856;SDS011;43683;48.650;9.290;2023-07-31T03:10:40;3.08;;;2.45;;
57856;SDS011;43683;48.650;9.290;2023-07-31T03:13:06;2.88;;;2.10;;
57856;SDS011;43683;48.650;9.290;2023-07-31T03:15:32;2.70;;;2.00;;
57856;SDS011;43683;48.650;9.290;2023-07-31T03:17:57;5.35;;;1.83;;
57856;SDS011;43683;48.650;9.290;2023-07-31T03:20:23;3.80;;;1.90;;
57856;SDS011;43683;48.650;9.290;2023-07-31T03:22:48;3.63;;;2.15;;
57856;SDS011;43683;48.650;9.290;2023-07-31T03:25:14;3.50;;;1.80;;
57856;SDS011;43683;48.650;9.290;2023-07-31T03:27:39;3.78;;;1.90;;
57856;SDS011;43683;48.650;9.290;2023-07-31T03:30:05;3.63;;;1.98;;
57856;SDS011;43683;48.650;9.290;2023-07-31T03:32:31;3.60;;;1.98;;
57856;SDS011;43683;48.650;9.290;2023-07-31T03:34:57;3.70;;;2.00;;
57856;SDS011;43683;48.650;9.290;2023-07-31T03:37:23;2.35;;;2.15;;
57856;SDS011;43683;48.650;9.290;2023-07-31T03:39:48;5.13;;;1.92;;
57856;SDS011;43683;48.650;9.290;2023-07-31T03:42:14;2.58;;;1.75;;
57856;SDS011;43683;48.650;9.290;2023-07-31T03:44:39;4.45;;;2.25;;
57856;SDS011;43683;48.650;9.290;2023-07-31T03:47:05;2.53;;;2.17;;
57856;SDS011;43683;48.650;9.290;2023-07-31T03:49:31;4.18;;;2.05;;
57856;SDS011;43683;48.650;9.290;2023-07-31T03:51:56;4.57;;;2.20;;
57856;SDS011;43683;48.650;9.290;2023-07-31T03:54:22;5.85;;;2.10;;
57856;SDS011;43683;48.650;9.290;2023-07-31T03:56:47;5.15;;;1.98;;
57856;SDS011;43683;48.650;9.290;2023-07-31T03:59:13;2.85;;;1.90;;
57856;SDS011;43683;48.650;9.290;2023-07-31T04:01:38;5.05;;;2.25;;
57856;SDS011;43683;48.650;9.290;2023-07-31T04:04:04;4.00;;;1.90;;
57856;SDS011;43683;48.650;9.290;2023-07-31T04:06:30;5.03;;;2.35;;
57856;SDS011;43683;48.650;9.290;2023-07-31T04:08:55;6.72;;;2.60;;
57856;SDS011;43683;48.650;9.290;2023-07-31T04:11:21;3.83;;;2.35;;
57856;SDS011;43683;48.650;9.290;2023-07-31T04:13:46;4.03;;;2.35;;
57856;SDS011;43683;48.650;9.290;2023-07-31T04:16:12;4.47;;;2.42;;
57856;SDS011;43683;48.650;9.290;2023-07-31T04:18:37;3.03;;;2.17;;
57856;SDS011;43683;48.650;9.290;2023-07-31T04:21:03;3.38;;;1.70;;
57856;SDS011;43683;48.650;9.290;2023-07-31T04:23:29;3.30;;;2.00;;
57856;SDS011;43683;48.650;9.290;2023-07-31T04:25:54;3.00;;;2.22;;
57856;SDS011;43683;48.650;9.290;2023-07-31T04:28:20;5.82;;;1.92;;
57856;SDS011;43683;48.650;9.290;2023-07-31T04:30:45;5.00;;;1.90;;
57856;SDS011;43683;48.650;9.290;2023-07-31T04:33:11;4.18;;;1.70;;
57856;SDS011;43683;48.650;9.290;2023-07-31T04:35:37;3.75;;;1.83;;
57856;SDS011;43683;48.650;9.290;2023-07-31T04:38:02;4.22;;;2.00;;
57856;SDS011;43683;48.650;9.290;2023-07-31T04:40:28;3.25;;;1.80;;
57856;SDS011;43683;48.650;9.290;2023-07-31T04:42:54;4.03;;;2.10;;
57856;SDS011;43683;48.650;9.290;2023-07-31T04:45:19;2.15;;;1.73;;
57856;SDS011;43683;48.650;9.290;2023-07-31T04:47:45;4.10;;;2.58;;
57856;SDS011;43683;48.650;9.290;2023-07-31T04:50:10;3.22;;;1.92;;
57856;SDS011;43683;48.650;9.290;2023-07-31T04:52:36;4.78;;;2.00;;
57856;SDS011;43683;48.650;9.290;2023-07-31T04:55:01;2.33;;;1.70;;
57856;SDS011;43683;48.650;9.290;2023-07-31T04:57:27;4.10;;;1.98;;
57856;SDS011;43683;48.650;9.290;2023-07-31T04:59:53;4.40;;;2.08;;
57856;SDS011;43683;48.650;9.290;2023-07-31T05:02:18;4.10;;;1.90;;
57856;SDS011;43683;48.650;9.290;2023-07-31T05:04:44;4.55;;;2.35;;
57856;SDS011;43683;48.650;9.290;2023-07-31T05:07:09;3.97;;;1.95;;
57856;SDS011;43683;48.650;9.290;2023-07-31T05:09:35;2.92;;;1.88;;
57856;SDS011;43683;48.650;9.290;2023-07-31T05:12:01;6.50;;;2.42;;
57856;SDS011;43683;48.650;9.290;2023-07-31T05:14:26;3.50;;;2.22;;
57856;SDS011;43683;48.650;9.290;2023-07-31T05:16:52;2.58;;;1.83;;
57856;SDS011;43683;48.650;9.290;2023-07-31T05:19:17;3.10;;;1.70;;
57856;SDS011;43683;48.650;9.290;2023-07-31T05:21:43;2.92;;;1.73;;
57856;SDS011;43683;48.650;9.290;2023-07-31T05:24:09;5.65;;;2.13;;
57856;SDS011;43683;48.650;9.290;2023-07-31T05:26:35;4.72;;;1.90;;
57856;SDS011;43683;48.650;9.290;2023-07-31T05:29:01;5.25;;;2.00;;
57856;SDS011;43683;48.650;9.290;2023-07-31T05:31:26;3.47;;;1.95;;
57856;SDS011;43683;48.650;9.290;2023-07-31T05:33:52;4.10;;;1.65;;
57856;SDS011;43683;48.650;9.290;2023-07-31T05:36:17;9.23;;;3.47;;
57856;SDS011;43683;48.650;9.290;2023-07-31T05:38:43;5.07;;;1.88;;
57856;SDS011;43683;48.650;9.290;2023-07-31T05:41:11;4.50;;;2.08;;
57856;SDS011;43683;48.650;9.290;2023-07-31T05:43:37;4.50;;;2.28;;
57856;SDS011;43683;48.650;9.290;2023-07-31T05:46:03;4.05;;;1.73;;
57856;SDS011;43683;48.650;9.290;2023-07-31T05:48:28;2.88;;;1.70;;
57856;SDS011;43683;48.650;9.290;2023-07-31T05:50:54;2.78;;;1.77;;
57856;SDS011;43683;48.650;9.290;2023-07-31T05:53:19;2.88;;;1.50;;
57856;SDS011;43683;48.650;9.290;2023-07-31T05:55:45;4.65;;;1.75;;
57856;SDS011;43683;48.650;9.290;2023-07-31T05:58:10;3.92;;;1.80;;
57856;SDS011;43683;48.650;9.290;2023-07-31T06:00:36;3.33;;;1.83;;
57856;SDS011;43683;48.650;9.290;2023-07-31T06:03:01;2.50;;;1.33;;
57856;SDS011;43683;48.650;9.290;2023-07-31T06:05:27;2.88;;;1.70;;
57856;SDS011;43683;48.650;9.290;2023-07-31T06:10:20;2.67;;;1.40;;
57856;SDS011;43683;48.650;9.290;2023-07-31T06:12:45;4.85;;;2.00;;
57856;SDS011;43683;48.650;9.290;2023-07-31T06:15:11;4.28;;;1.80;;
57856;SDS011;43683;48.650;9.290;2023-07-31T06:17:37;4.85;;;2.05;;
57856;SDS011;43683;48.650;9.290;2023-07-31T06:20:02;2.50;;;1.70;;
57856;SDS011;43683;48.650;9.290;2023-07-31T06:24:55;2.67;;;1.60;;
57856;SDS011;43683;48.650;9.290;2023-07-31T06:27:21;3.95;;;1.83;;
57856;SDS011;43683;48.650;9.290;2023-07-31T06:29:46;2.80;;;1.58;;
57856;SDS011;43683;48.650;9.290;2023-07-31T06:32:12;2.58;;;1.40;;
57856;SDS011;43683;48.650;9.290;2023-07-31T06:34:38;2.72;;;1.63;;
57856;SDS011;43683;48.650;9.290;2023-07-31T06:37:04;2.28;;;1.48;;
57856;SDS011;43683;48.650;9.290;2023-07-31T06:39:30;4.30;;;1.50;;
57856;SDS011;43683;48.650;9.290;2023-07-31T06:41:55;4.45;;;1.85;;
57856;SDS011;43683;48.650;9.290;2023-07-31T06:44:21;3.70;;;1.60;;
57856;SDS011;43683;48.650;9.290;2023-07-31T06:46:46;7.03;;;1.77;;
57856;SDS011;43683;48.650;9.290;2023-07-31T06:49:12;2.78;;;1.60;;
57856;SDS011;43683;48.650;9.290;2023-07-31T06:51:40;2.17;;;1.60;;
57856;SDS011;43683;48.650;9.290;2023-07-31T06:54:05;4.63;;;1.65;;
57856;SDS011;43683;48.650;9.290;2023-07-31T06:56:31;1.80;;;1.40;;
57856;SDS011;43683;48.650;9.290;2023-07-31T06:58:56;2.72;;;1.60;;
57856;SDS011;43683;48.650;9.290;2023-07-31T07:01:22;6.78;;;1.63;;
57856;SDS011;43683;48.650;9.290;2023-07-31T07:03:47;4.38;;;2.38;;
57856;SDS011;43683;48.650;9.290;2023-07-31T07:06:15;3.05;;;1.40;;
57856;SDS011;43683;48.650;9.290;2023-07-31T07:08:41;4.85;;;1.67;;
57856;SDS011;43683;48.650;9.290;2023-07-31T07:11:07;2.67;;;1.60;;
57856;SDS011;43683;48.650;9.290;2023-07-31T07:13:33;4.82;;;1.60;;
57856;SDS011;43683;48.650;9.290;2023-07-31T07:15:59;1.90;;;1.25;;
57856;SDS011;43683;48.650;9.290;2023-07-31T07:18:24;2.08;;;1.40;;
57856;SDS011;43683;48.650;9.290;2023-07-31T07:20:50;2.63;;;1.40;;
57856;SDS011;43683;48.650;9.290;2023-07-31T07:23:17;2.95;;;1.50;;
57856;SDS011;43683;48.650;9.290;2023-07-31T07:25:43;2.30;;;1.45;;
57856;SDS011;43683;48.650;9.290;2023-07-31T07:28:10;2.83;;;1.13;;
57856;SDS011;43683;48.650;9.290;2023-07-31T07:30:35;3.15;;;1.48;;
57856;SDS011;43683;48.650;9.290;2023-07-31T07:33:01;3.70;;;1.60;;
57856;SDS011;43683;48.650;9.290;2023-07-31T07:35:27;4.55;;;1.45;;
57856;SDS011;43683;48.650;9.290;2023-07-31T07:37:52;5.28;;;1.70;;
57856;SDS011;43683;48.650;9.290;2023-07-31T07:40:18;2.05;;;1.20;;
57856;SDS011;43683;48.650;9.290;2023-07-31T07:42:44;4.28;;;1.50;;
57856;SDS011;43683;48.650;9.290;2023-07-31T07:45:10;3.67;;;1.58;;
57856;SDS011;43683;48.650;9.290;2023-07-31T07:47:35;5.18;;;1.60;;
57856;SDS011;43683;48.650;9.290;2023-07-31T07:50:01;4.88;;;1.42;;
57856;SDS011;43683;48.650;9.290;2023-07-31T07:52:26;2.72;;;1.60;;
57856;SDS011;43683;48.650;9.290;2023-07-31T07:54:53;4.05;;;1.60;;
57856;SDS011;43683;48.650;9.290;2023-07-31T07:57:18;3.88;;;1.92;;
57856;SDS011;43683;48.650;9.290;2023-07-31T07:59:44;3.88;;;1.40;;
57856;SDS011;43683;48.650;9.290;2023-07-31T08:02:09;2.60;;;1.40;;
57856;SDS011;43683;48.650;9.290;2023-07-31T08:04:35;2.25;;;1.45;;
57856;SDS011;43683;48.650;9.290;2023-07-31T08:07:00;2.35;;;1.10;;
57856;SDS011;43683;48.650;9.290;2023-07-31T08:09:26;2.35;;;1.38;;
57856;SDS011;43683;48.650;9.290;2023-07-31T08:11:51;2.35;;;1.40;;
57856;SDS011;43683;48.650;9.290;2023-07-31T08:14:17;5.70;;;1.90;;
57856;SDS011;43683;48.650;9.290;2023-07-31T08:16:42;3.72;;;1.30;;
57856;SDS011;43683;48.650;9.290;2023-07-31T08:19:08;3.83;;;1.40;;
57856;SDS011;43683;48.650;9.290;2023-07-31T08:21:33;4.78;;;1.50;;
57856;SDS011;43683;48.650;9.290;2023-07-31T08:23:59;3.72;;;1.58;;
57856;SDS011;43683;48.650;9.290;2023-07-31T08:26:25;4.82;;;1.40;;
57856;SDS011;43683;48.650;9.290;2023-07-31T08:28:50;1.73;;;1.02;;
57856;SDS011;43683;48.650;9.290;2023-07-31T08:31:16;3.90;;;1.23;;
57856;SDS011;43683;48.650;9.290;2023-07-31T08:33:41;3.90;;;1.30;;
57856;SDS011;43683;48.650;9.290;2023-07-31T08:36:07;3.42;;;1.40;;
57856;SDS011;43683;48.650;9.290;2023-07-31T08:38:32;2.80;;;1.40;;
57856;SDS011;43683;48.650;9.290;2023-07-31T08:40:58;2.80;;;1.25;;
57856;SDS011;43683;48.650;9.290;2023-07-31T08:43:27;3.92;;;1.50;;
57856;SDS011;43683;48.650;9.290;2023-07-31T08:45:53;4.65;;;1.73;;
57856;SDS011;43683;48.650;9.290;2023-07-31T08:48:19;6.32;;;1.95;;
57856;SDS011;43683;48.650;9.290;2023-07-31T08:50:45;3.53;;;1.58;;
57856;SDS011;43683;48.650;9.290;2023-07-31T08:53:11;4.35;;;1.70;;
57856;SDS011;43683;48.650;9.290;2023-07-31T08:55:37;4.75;;;1.80;;
57856;SDS011;43683;48.650;9.290;2023-07-31T08:58:03;4.00;;;1.67;;
57856;SDS011;43683;48.650;9.290;2023-07-31T09:00:30;3.15;;;1.60;;
57856;SDS011;43683;48.650;9.290;2023-07-31T09:03:02;5.10;;;1.30;;
57856;SDS011;43683;48.650;9.290;2023-07-31T09:05:29;2.08;;;1.23;;
57856;SDS011;43683;48.650;9.290;2023-07-31T09:07:56;4.18;;;1.75;;
57856;SDS011;43683;48.650;9.290;2023-07-31T09:10:22;4.27;;;1.70;;
57856;SDS011;43683;48.650;9.290;2023-07-31T09:12:48;3.67;;;1.48;;
57856;SDS011;43683;48.650;9.290;2023-07-31T09:15:15;3.60;;;1.40;;
57856;SDS011;43683;48.650;9.290;2023-07-31T09:17:42;3.47;;;1.30;;
57856;SDS011;43683;48.650;9.290;2023-07-31T09:20:17;4.72;;;2.45;;
57856;SDS011;43683;48.650;9.290;2023-07-31T09:22:45;9.15;;;2.00;;
57856;SDS011;43683;48.650;9.290;2023-07-31T09:25:21;3.45;;;1.60;;
57856;SDS011;43683;48.650;9.290;2023-07-31T09:27:48;4.15;;;1.25;;
57856;SDS011;43683;48.650;9.290;2023-07-31T09:30:15;3.88;;;2.00;;
57856;SDS011;43683;48.650;9.290;2023-07-31T09:32:42;7.45;;;2.17;;
57856;SDS011;43683;48.650;9.290;2023-07-31T09:37:40;2.88;;;1.50;;
57856;SDS011;43683;48.650;9.290;2023-07-31T09:40:06;4.60;;;1.40;;
57856;SDS011;43683;48.650;9.290;2023-07-31T09:42:32;3.88;;;1.52;;
57856;SDS011;43683;48.650;9.290;2023-07-31T09:45:08;4.55;;;1.58;;
57856;SDS011;43683;48.650;9.290;2023-07-31T09:47:34;3.35;;;1.42;;
57856;SDS011;43683;48.650;9.290;2023-07-31T09:50:00;3.45;;;1.45;;
57856;SDS011;43683;48.650;9.290;2023-07-31T09:52:26;4.05;;;1.38;;
57856;SDS011;43683;48.650;9.290;2023-07-31T09:54:55;4.68;;;1.55;;
57856;SDS011;43683;48.650;9.290;2023-07-31T09:57:21;2.25;;;1.20;;
57856;SDS011;43683;48.650;9.290;2023-07-31T09:59:47;2.42;;;1.40;;
57856;SDS011;43683;48.650;9.290;2023-07-31T10:02:15;3.90;;;1.70;;
57856;SDS011;43683;48.650;9.290;2023-07-31T10:04:46;3.20;;;1.30;;
57856;SDS011;43683;48.650;9.290;2023-07-31T10:07:16;3.58;;;1.38;;
57856;SDS011;43683;48.650;9.290;2023-07-31T10:09:43;3.33;;;1.50;;
57856;SDS011;43683;48.650;9.290;2023-07-31T10:12:10;4.75;;;2.00;;
57856;SDS011;43683;48.650;9.290;2023-07-31T10:14:39;3.08;;;1.27;;
57856;SDS011;43683;48.650;9.290;2023-07-31T10:17:07;4.18;;;1.45;;
57856;SDS011;43683;48.650;9.290;2023-07-31T10:19:33;2.97;;;1.50;;
57856;SDS011;43683;48.650;9.290;2023-07-31T10:22:00;3.50;;;1.53;;
57856;SDS011;43683;48.650;9.290;2023-07-31T10:24:27;4.70;;;1.60;;
57856;SDS011;43683;48.650;9.290;2023-07-31T10:26:54;6.82;;;1.88;;
57856;SDS011;43683;48.650;9.290;2023-07-31T10:29:24;3.67;;;1.42;;
57856;SDS011;43683;48.650;9.290;2023-07-31T10:31:51;3.63;;;1.55;;
57856;SDS011;43683;48.650;9.290;2023-07-31T10:34:17;4.70;;;1.73;;
57856;SDS011;43683;48.650;9.290;2023-07-31T10:36:43;1.92;;;1.38;;
57856;SDS011;43683;48.650;9.290;2023-07-31T10:42:13;4.22;;;1.77;;
57856;SDS011;43683;48.650;9.290;2023-07-31T10:44:43;4.45;;;1.35;;
57856;SDS011;43683;48.650;9.290;2023-07-31T10:47:10;5.13;;;1.42;;
57856;SDS011;43683;48.650;9.290;2023-07-31T10:49:39;3.80;;;1.55;;
57856;SDS011;43683;48.650;9.290;2023-07-31T10:52:04;4.68;;;1.60;;
57856;SDS011;43683;48.650;9.290;2023-07-31T10:54:30;4.97;;;1.65;;
57856;SDS011;43683;48.650;9.290;2023-07-31T10:56:55;3.47;;;1.30;;
57856;SDS011;43683;48.650;9.290;2023-07-31T10:59:26;4.18;;;1.35;;
57856;SDS011;43683;48.650;9.290;2023-07-31T11:01:53;2.47;;;1.40;;
57856;SDS011;43683;48.650;9.290;2023-07-31T11:04:26;4.88;;;1.40;;
57856;SDS011;43683;48.650;9.290;2023-07-31T11:06:58;3.05;;;1.60;;
57856;SDS011;43683;48.650;9.290;2023-07-31T11:09:29;2.83;;;1.25;;
57856;SDS011;43683;48.650;9.290;2023-07-31T11:11:56;2.15;;;1.17;;
57856;SDS011;43683;48.650;9.290;2023-07-31T11:14:22;4.32;;;1.38;;
57856;SDS011;43683;48.650;9.290;2023-07-31T11:16:51;3.00;;;1.42;;
57856;SDS011;43683;48.650;9.290;2023-07-31T11:19:25;5.18;;;1.77;;
57856;SDS011;43683;48.650;9.290;2023-07-31T11:21:51;4.07;;;1.60;;
57856;SDS011;43683;48.650;9.290;2023-07-31T11:24:18;2.97;;;1.52;;
57856;SDS011;43683;48.650;9.290;2023-07-31T11:26:50;4.55;;;1.67;;
57856;SDS011;43683;48.650;9.290;2023-07-31T11:29:17;3.78;;;1.58;;
57856;SDS011;43683;48.650;9.290;2023-07-31T11:34:09;4.57;;;1.48;;
57856;SDS011;43683;48.650;9.290;2023-07-31T11:36:35;2.83;;;1.40;;
57856;SDS011;43683;48.650;9.290;2023-07-31T11:39:04;4.30;;;1.80;;
57856;SDS011;43683;48.650;9.290;2023-07-31T11:41:33;5.78;;;1.92;;
57856;SDS011;43683;48.650;9.290;2023-07-31T11:43:59;4.53;;;1.90;;
57856;SDS011;43683;48.650;9.290;2023-07-31T11:46:25;3.28;;;1.60;;
57856;SDS011;43683;48.650;9.290;2023-07-31T11:48:51;4.10;;;1.95;;
57856;SDS011;43683;48.650;9.290;2023-07-31T11:51:17;3.90;;;1.60;;
57856;SDS011;43683;48.650;9.290;2023-07-31T11:53:47;6.97;;;1.90;;
57856;SDS011;43683;48.650;9.290;2023-07-31T11:56:20;4.55;;;1.75;;
57856;SDS011;43683;48.650;9.290;2023-07-31T11:58:47;2.60;;;1.45;;
57856;SDS011;43683;48.650;9.290;2023-07-31T12:01:22;2.78;;;1.80;;
57856;SDS011;43683;48.650;9.290;2023-07-31T12:03:51;4.43;;;1.77;;
57856;SDS011;43683;48.650;9.290;2023-07-31T12:06:17;3.42;;;1.60;;
57856;SDS011;43683;48.650;9.290;2023-07-31T12:08:45;3.80;;;1.70;;
57856;SDS011;43683;48.650;9.290;2023-07-31T12:11:11;5.75;;;1.60;;
57856;SDS011;43683;48.650;9.290;2023-07-31T12:13:38;5.47;;;1.90;;
57856;SDS011;43683;48.650;9.290;2023-07-31T12:16:04;2.88;;;1.40;;
57856;SDS011;43683;48.650;9.290;2023-07-31T12:18:33;4.53;;;2.08;;
57856;SDS011;43683;48.650;9.290;2023-07-31T12:21:01;4.47;;;1.80;;
57856;SDS011;43683;48.650;9.290;2023-07-31T12:23:32;3.72;;;1.60;;
57856;SDS011;43683;48.650;9.290;2023-07-31T12:26:06;3.75;;;2.20;;
57856;SDS011;43683;48.650;9.290;2023-07-31T12:28:35;2.67;;;1.58;;
57856;SDS011;43683;48.650;9.290;2023-07-31T12:31:05;4.25;;;1.73;;
57856;SDS011;43683;48.650;9.290;2023-07-31T12:33:32;5.93;;;2.03;;
57856;SDS011;43683;48.650;9.290;2023-07-31T12:36:00;5.40;;;1.88;;
57856;SDS011;43683;48.650;9.290;2023-07-31T12:38:27;3.40;;;1.60;;
57856;SDS011;43683;48.650;9.290;2023-07-31T12:40:53;3.03;;;1.70;;
57856;SDS011;43683;48.650;9.290;2023-07-31T12:43:18;2.67;;;1.50;;
57856;SDS011;43683;48.650;9.290;2023-07-31T12:45:44;3.10;;;2.25;;
57856;SDS011;43683;48.650;9.290;2023-07-31T12:48:09;2.67;;;1.70;;
57856;SDS011;43683;48.650;9.290;2023-07-31T12:50:35;5.47;;;1.90;;
57856;SDS011;43683;48.650;9.290;2023-07-31T12:53:04;4.03;;;1.90;;
57856;SDS011;43683;48.650;9.290;2023-07-31T12:57:57;3.72;;;1.80;;
57856;SDS011;43683;48.650;9.290;2023-07-31T13:00:23;3.17;;;1.65;;
57856;SDS011;43683;48.650;9.290;2023-07-31T13:02:48;2.88;;;1.50;;
57856;SDS011;43683;48.650;9.290;2023-07-31T13:05:14;5.05;;;2.05;;
57856;SDS011;43683;48.650;9.290;2023-07-31T13:07:40;4.30;;;1.90;;
57856;SDS011;43683;48.650;9.290;2023-07-31T13:10:06;3.30;;;1.70;;
57856;SDS011;43683;48.650;9.290;2023-07-31T13:12:33;5.18;;;2.10;;
57856;SDS011;43683;48.650;9.290;2023-07-31T13:14:59;5.35;;;1.58;;
57856;SDS011;43683;48.650;9.290;2023-07-31T13:17:24;3.42;;;1.92;;
57856;SDS011;43683;48.650;9.290;2023-07-31T13:19:50;5.90;;;1.70;;
57856;SDS011;43683;48.650;9.290;2023-07-31T13:22:15;4.50;;;1.83;;
57856;SDS011;43683;48.650;9.290;2023-07-31T13:24:41;3.22;;;1.50;;
57856;SDS011;43683;48.650;9.290;2023-07-31T13:27:06;5.00;;;1.60;;
57856;SDS011;43683;48.650;9.290;2023-07-31T13:29:32;4.03;;;1.60;;
57856;SDS011;43683;48.650;9.290;2023-07-31T13:31:57;3.85;;;1.58;;
57856;SDS011;43683;48.650;9.290;2023-07-31T13:34:23;4.63;;;1.60;;
57856;SDS011;43683;48.650;9.290;2023-07-31T13:36:49;4.22;;;1.92;;
57856;SDS011;43683;48.650;9.290;2023-07-31T13:39:14;5.15;;;1.80;;
57856;SDS011;43683;48.650;9.290;2023-07-31T13:41:40;3.40;;;1.45;;
57856;SDS011;43683;48.650;9.290;2023-07-31T13:44:05;3.97;;;1.73;;
57856;SDS011;43683;48.650;9.290;2023-07-31T13:46:31;3.03;;;1.63;;
57856;SDS011;43683;48.650;9.290;2023-07-31T13:48:57;4.00;;;1.52;;
57856;SDS011;43683;48.650;9.290;2023-07-31T13:51:24;2.30;;;1.48;;
57856;SDS011;43683;48.650;9.290;2023-07-31T13:53:50;4.88;;;1.85;;
57856;SDS011;43683;48.650;9.290;2023-07-31T13:56:16;4.00;;;1.67;;
57856;SDS011;43683;48.650;9.290;2023-07-31T13:58:41;4.00;;;1.55;;
57856;SDS011;43683;48.650;9.290;2023-07-31T14:01:07;3.25;;;1.42;;
57856;SDS011;43683;48.650;9.290;2023-07-31T14:03:32;4.88;;;1.70;;
57856;SDS011;43683;48.650;9.290;2023-07-31T14:05:58;3.90;;;1.75;;
57856;SDS011;43683;48.650;9.290;2023-07-31T14:08:24;5.07;;;1.98;;
57856;SDS011;43683;48.650;9.290;2023-07-31T14:10:49;3.38;;;1.73;;
57856;SDS011;43683;48.650;9.290;2023-07-31T14:13:15;9.40;;;1.90;;
57856;SDS011;43683;48.650;9.290;2023-07-31T14:15:43;3.92;;;1.65;;
57856;SDS011;43683;48.650;9.290;2023-07-31T14:18:09;4.25;;;1.95;;
57856;SDS011;43683;48.650;9.290;2023-07-31T14:20:35;6.07;;;1.73;;
57856;SDS011;43683;48.650;9.290;2023-07-31T14:23:01;4.40;;;1.63;;
57856;SDS011;43683;48.650;9.290;2023-07-31T14:25:27;2.75;;;1.50;;
57856;SDS011;43683;48.650;9.290;2023-07-31T14:27:53;3.95;;;1.70;;
57856;SDS011;43683;48.650;9.290;2023-07-31T14:30:19;4.63;;;1.70;;
57856;SDS011;43683;48.650;9.290;2023-07-31T14:32:45;2.80;;;1.50;;
57856;SDS011;43683;48.650;9.290;2023-07-31T14:35:10;3.38;;;1.73;;
57856;SDS011;43683;48.650;9.290;2023-07-31T14:37:39;2.97;;;1.65;;
57856;SDS011;43683;48.650;9.290;2023-07-31T14:40:09;3.47;;;1.60;;
57856;SDS011;43683;48.650;9.290;2023-07-31T14:42:36;7.35;;;1.80;;
57856;SDS011;43683;48.650;9.290;2023-07-31T14:45:03;4.68;;;1.60;;
57856;SDS011;43683;48.650;9.290;2023-07-31T14:49:56;2.75;;;1.48;;
57856;SDS011;43683;48.650;9.290;2023-07-31T14:52:21;4.25;;;1.70;;
57856;SDS011;43683;48.650;9.290;2023-07-31T14:54:47;4.38;;;1.67;;
57856;SDS011;43683;48.650;9.290;2023-07-31T14:57:12;3.22;;;1.38;;
57856;SDS011;43683;48.650;9.290;2023-07-31T14:59:38;3.42;;;1.67;;
57856;SDS011;43683;48.650;9.290;2023-07-31T15:02:03;3.05;;;1.58;;
57856;SDS011;43683;48.650;9.290;2023-07-31T15:04:29;4.32;;;1.77;;